sensor_id;sensor_type;location;lat;lon;timestamp;P1;durP1;ratioP1;P2;durP2;ratioP2
72797;SDS011;61084;55.816;37.036;2024-02-21T00:01:47;7.75;;;4.32;;
72797;SDS011;61084;55.816;37.036;2024-02-21T00:04:13;9.20;;;5.20;;
72797;SDS011;61084;55.816;37.036;2024-02-21T00:06:39;7.72;;;4.00;;
72797;SDS011;61084;55.816;37.036;2024-02-21T00:09:05;10.07;;;4.70;;
72797;SDS011;61084;55.816;37.036;2024-02-21T00:11:31;9.55;;;4.78;;
72797;SDS011;61084;55.816;37.036;2024-02-21T00:13:56;8.20;;;4.60;;
72797;SDS011;61084;55.816;37.036;2024-02-21T00:16:22;8.82;;;4.65;;
72797;SDS011;61084;55.816;37.036;2024-02-21T00:18:48;8.50;;;4.70;;
72797;SDS011;61084;55.816;37.036;2024-02-21T00:21:14;11.43;;;5.43;;
72797;SDS011;61084;55.816;37.036;2024-02-21T00:23:44;7.18;;;4.05;;
72797;SDS011;61084;55.816;37.036;2024-02-21T00:26:13;9.27;;;4.57;;
72797;SDS011;61084;55.816;37.036;2024-02-21T00:28:39;8.13;;;4.57;;
72797;SDS011;61084;55.816;37.036;2024-02-21T00:31:05;7.25;;;4.40;;
72797;SDS011;61084;55.816;37.036;2024-02-21T00:33:31;10.95;;;4.60;;
72797;SDS011;61084;55.816;37.036;2024-02-21T00:35:57;11.07;;;4.53;;
72797;SDS011;61084;55.816;37.036;2024-02-21T00:38:23;10.27;;;5.10;;
72797;SDS011;61084;55.816;37.036;2024-02-21T00:40:48;11.68;;;5.43;;
72797;SDS011;61084;55.816;37.036;2024-02-21T00:43:14;12.45;;;4.55;;
72797;SDS011;61084;55.816;37.036;2024-02-21T00:45:40;12.02;;;5.25;;
72797;SDS011;61084;55.816;37.036;2024-02-21T00:48:06;9.05;;;4.70;;
72797;SDS011;61084;55.816;37.036;2024-02-21T00:50:32;9.32;;;4.28;;
72797;SDS011;61084;55.816;37.036;2024-02-21T00:52:58;8.35;;;4.30;;
72797;SDS011;61084;55.816;37.036;2024-02-21T00:55:24;8.93;;;4.70;;
72797;SDS011;61084;55.816;37.036;2024-02-21T00:57:50;15.07;;;4.65;;
72797;SDS011;61084;55.816;37.036;2024-02-21T01:00:16;7.97;;;4.10;;
72797;SDS011;61084;55.816;37.036;2024-02-21T01:02:42;11.10;;;4.72;;
72797;SDS011;61084;55.816;37.036;2024-02-21T01:05:08;8.35;;;4.53;;
72797;SDS011;61084;55.816;37.036;2024-02-21T01:07:34;10.20;;;4.68;;
72797;SDS011;61084;55.816;37.036;2024-02-21T01:10:00;8.00;;;4.30;;
72797;SDS011;61084;55.816;37.036;2024-02-21T01:12:27;9.75;;;4.68;;
72797;SDS011;61084;55.816;37.036;2024-02-21T01:14:53;9.75;;;5.40;;
72797;SDS011;61084;55.816;37.036;2024-02-21T01:17:19;9.30;;;4.47;;
72797;SDS011;61084;55.816;37.036;2024-02-21T01:19:46;13.60;;;5.20;;
72797;SDS011;61084;55.816;37.036;2024-02-21T01:22:12;10.27;;;4.72;;
72797;SDS011;61084;55.816;37.036;2024-02-21T01:24:38;11.45;;;4.78;;
72797;SDS011;61084;55.816;37.036;2024-02-21T01:27:03;12.02;;;5.30;;
72797;SDS011;61084;55.816;37.036;2024-02-21T01:29:30;8.38;;;4.70;;
72797;SDS011;61084;55.816;37.036;2024-02-21T01:31:55;12.93;;;5.10;;
72797;SDS011;61084;55.816;37.036;2024-02-21T01:34:21;8.80;;;4.40;;
72797;SDS011;61084;55.816;37.036;2024-02-21T01:36:47;11.52;;;5.88;;
72797;SDS011;61084;55.816;37.036;2024-02-21T01:39:13;12.65;;;5.35;;
72797;SDS011;61084;55.816;37.036;2024-02-21T01:41:39;12.50;;;5.25;;
72797;SDS011;61084;55.816;37.036;2024-02-21T01:44:05;15.52;;;5.20;;
72797;SDS011;61084;55.816;37.036;2024-02-21T01:46:31;14.32;;;5.95;;
72797;SDS011;61084;55.816;37.036;2024-02-21T01:48:57;14.77;;;5.68;;
72797;SDS011;61084;55.816;37.036;2024-02-21T01:51:26;17.27;;;7.07;;
72797;SDS011;61084;55.816;37.036;2024-02-21T01:53:53;18.17;;;6.70;;
72797;SDS011;61084;55.816;37.036;2024-02-21T01:56:20;16.63;;;7.35;;
72797;SDS011;61084;55.816;37.036;2024-02-21T01:58:47;17.02;;;6.80;;
72797;SDS011;61084;55.816;37.036;2024-02-21T02:01:14;18.00;;;6.82;;
72797;SDS011;61084;55.816;37.036;2024-02-21T02:03:40;14.80;;;6.68;;
72797;SDS011;61084;55.816;37.036;2024-02-21T02:06:06;13.23;;;5.95;;
72797;SDS011;61084;55.816;37.036;2024-02-21T02:08:32;15.43;;;6.88;;
72797;SDS011;61084;55.816;37.036;2024-02-21T02:10:59;13.27;;;5.90;;
72797;SDS011;61084;55.816;37.036;2024-02-21T02:13:25;14.07;;;6.18;;
72797;SDS011;61084;55.816;37.036;2024-02-21T02:15:51;15.43;;;6.10;;
72797;SDS011;61084;55.816;37.036;2024-02-21T02:18:18;11.88;;;5.28;;
72797;SDS011;61084;55.816;37.036;2024-02-21T02:20:45;12.68;;;5.15;;
72797;SDS011;61084;55.816;37.036;2024-02-21T02:23:25;10.65;;;5.25;;
72797;SDS011;61084;55.816;37.036;2024-02-21T02:25:52;10.07;;;5.30;;
72797;SDS011;61084;55.816;37.036;2024-02-21T02:28:18;11.77;;;5.40;;
72797;SDS011;61084;55.816;37.036;2024-02-21T02:30:45;11.52;;;5.45;;
72797;SDS011;61084;55.816;37.036;2024-02-21T02:33:11;9.93;;;4.70;;
72797;SDS011;61084;55.816;37.036;2024-02-21T02:35:37;12.65;;;5.50;;
72797;SDS011;61084;55.816;37.036;2024-02-21T02:38:03;14.15;;;6.00;;
72797;SDS011;61084;55.816;37.036;2024-02-21T02:40:33;11.20;;;5.40;;
72797;SDS011;61084;55.816;37.036;2024-02-21T02:43:00;11.25;;;5.85;;
72797;SDS011;61084;55.816;37.036;2024-02-21T02:45:25;11.73;;;6.03;;
72797;SDS011;61084;55.816;37.036;2024-02-21T02:47:52;11.98;;;5.80;;
72797;SDS011;61084;55.816;37.036;2024-02-21T02:50:23;13.65;;;5.55;;
72797;SDS011;61084;55.816;37.036;2024-02-21T02:52:49;11.27;;;5.43;;
72797;SDS011;61084;55.816;37.036;2024-02-21T02:55:15;11.35;;;5.00;;
72797;SDS011;61084;55.816;37.036;2024-02-21T02:57:41;11.80;;;5.05;;
72797;SDS011;61084;55.816;37.036;2024-02-21T03:00:08;9.65;;;5.10;;
72797;SDS011;61084;55.816;37.036;2024-02-21T03:02:37;10.98;;;4.55;;
72797;SDS011;61084;55.816;37.036;2024-02-21T03:05:11;11.63;;;5.32;;
72797;SDS011;61084;55.816;37.036;2024-02-21T03:07:42;12.68;;;5.20;;
72797;SDS011;61084;55.816;37.036;2024-02-21T03:10:09;11.80;;;5.65;;
72797;SDS011;61084;55.816;37.036;2024-02-21T03:12:35;10.55;;;5.07;;
72797;SDS011;61084;55.816;37.036;2024-02-21T03:15:02;10.20;;;5.15;;
72797;SDS011;61084;55.816;37.036;2024-02-21T03:17:31;10.38;;;4.93;;
72797;SDS011;61084;55.816;37.036;2024-02-21T03:20:03;13.48;;;5.57;;
72797;SDS011;61084;55.816;37.036;2024-02-21T03:22:36;9.95;;;5.03;;
72797;SDS011;61084;55.816;37.036;2024-02-21T03:25:02;11.20;;;5.35;;
72797;SDS011;61084;55.816;37.036;2024-02-21T03:27:38;11.93;;;5.38;;
72797;SDS011;61084;55.816;37.036;2024-02-21T03:30:05;11.80;;;5.50;;
72797;SDS011;61084;55.816;37.036;2024-02-21T03:32:33;14.02;;;5.55;;
72797;SDS011;61084;55.816;37.036;2024-02-21T03:34:59;11.65;;;5.35;;
72797;SDS011;61084;55.816;37.036;2024-02-21T03:37:25;10.48;;;5.13;;
72797;SDS011;61084;55.816;37.036;2024-02-21T03:39:51;9.50;;;4.95;;
72797;SDS011;61084;55.816;37.036;2024-02-21T03:42:17;13.07;;;5.63;;
72797;SDS011;61084;55.816;37.036;2024-02-21T03:44:43;15.13;;;5.63;;
72797;SDS011;61084;55.816;37.036;2024-02-21T03:47:09;9.55;;;5.05;;
72797;SDS011;61084;55.816;37.036;2024-02-21T03:52:03;10.52;;;4.72;;
72797;SDS011;61084;55.816;37.036;2024-02-21T03:54:29;10.50;;;5.18;;
72797;SDS011;61084;55.816;37.036;2024-02-21T03:56:55;10.85;;;4.90;;
72797;SDS011;61084;55.816;37.036;2024-02-21T03:59:20;14.45;;;5.75;;
72797;SDS011;61084;55.816;37.036;2024-02-21T04:01:51;12.32;;;4.97;;
72797;SDS011;61084;55.816;37.036;2024-02-21T04:04:17;13.88;;;5.88;;
72797;SDS011;61084;55.816;37.036;2024-02-21T04:06:49;13.35;;;6.25;;
72797;SDS011;61084;55.816;37.036;2024-02-21T04:09:16;13.15;;;5.45;;
72797;SDS011;61084;55.816;37.036;2024-02-21T04:11:42;11.57;;;5.35;;
72797;SDS011;61084;55.816;37.036;2024-02-21T04:14:08;12.90;;;5.28;;
72797;SDS011;61084;55.816;37.036;2024-02-21T04:16:34;13.80;;;6.47;;
72797;SDS011;61084;55.816;37.036;2024-02-21T04:19:00;14.93;;;6.53;;
72797;SDS011;61084;55.816;37.036;2024-02-21T04:21:27;11.80;;;4.70;;
72797;SDS011;61084;55.816;37.036;2024-02-21T04:23:53;11.88;;;5.50;;
72797;SDS011;61084;55.816;37.036;2024-02-21T04:26:19;12.35;;;5.72;;
72797;SDS011;61084;55.816;37.036;2024-02-21T04:28:45;12.38;;;5.60;;
72797;SDS011;61084;55.816;37.036;2024-02-21T04:31:11;10.23;;;4.45;;
72797;SDS011;61084;55.816;37.036;2024-02-21T04:33:37;11.20;;;5.13;;
72797;SDS011;61084;55.816;37.036;2024-02-21T04:36:03;9.93;;;5.10;;
72797;SDS011;61084;55.816;37.036;2024-02-21T04:38:30;11.45;;;5.22;;
72797;SDS011;61084;55.816;37.036;2024-02-21T04:40:55;18.17;;;6.05;;
72797;SDS011;61084;55.816;37.036;2024-02-21T04:43:27;10.27;;;5.15;;
72797;SDS011;61084;55.816;37.036;2024-02-21T04:45:52;9.88;;;5.28;;
72797;SDS011;61084;55.816;37.036;2024-02-21T04:48:19;11.57;;;5.55;;
72797;SDS011;61084;55.816;37.036;2024-02-21T04:50:46;11.05;;;5.10;;
72797;SDS011;61084;55.816;37.036;2024-02-21T04:53:12;8.82;;;4.65;;
72797;SDS011;61084;55.816;37.036;2024-02-21T04:55:38;9.75;;;4.65;;
72797;SDS011;61084;55.816;37.036;2024-02-21T04:58:06;12.55;;;5.78;;
72797;SDS011;61084;55.816;37.036;2024-02-21T05:00:33;13.02;;;5.72;;
72797;SDS011;61084;55.816;37.036;2024-02-21T05:03:00;14.55;;;5.72;;
72797;SDS011;61084;55.816;37.036;2024-02-21T05:05:26;11.38;;;5.45;;
72797;SDS011;61084;55.816;37.036;2024-02-21T05:07:52;12.57;;;5.57;;
72797;SDS011;61084;55.816;37.036;2024-02-21T05:10:17;10.20;;;5.65;;
72797;SDS011;61084;55.816;37.036;2024-02-21T05:12:44;12.77;;;6.15;;
72797;SDS011;61084;55.816;37.036;2024-02-21T05:15:10;12.30;;;5.22;;
72797;SDS011;61084;55.816;37.036;2024-02-21T05:17:36;12.50;;;5.90;;
72797;SDS011;61084;55.816;37.036;2024-02-21T05:20:02;12.57;;;5.75;;
72797;SDS011;61084;55.816;37.036;2024-02-21T05:22:30;12.93;;;5.80;;
72797;SDS011;61084;55.816;37.036;2024-02-21T05:24:56;12.02;;;6.00;;
72797;SDS011;61084;55.816;37.036;2024-02-21T05:27:22;13.70;;;6.03;;
72797;SDS011;61084;55.816;37.036;2024-02-21T05:29:48;15.38;;;6.28;;
72797;SDS011;61084;55.816;37.036;2024-02-21T05:32:14;15.45;;;6.28;;
72797;SDS011;61084;55.816;37.036;2024-02-21T05:34:42;13.35;;;6.20;;
72797;SDS011;61084;55.816;37.036;2024-02-21T05:37:08;13.98;;;5.85;;
72797;SDS011;61084;55.816;37.036;2024-02-21T05:39:34;14.63;;;6.90;;
72797;SDS011;61084;55.816;37.036;2024-02-21T05:42:00;14.52;;;6.80;;
72797;SDS011;61084;55.816;37.036;2024-02-21T05:44:26;19.95;;;7.00;;
72797;SDS011;61084;55.816;37.036;2024-02-21T05:46:52;15.10;;;5.93;;
72797;SDS011;61084;55.816;37.036;2024-02-21T05:49:18;17.17;;;7.00;;
72797;SDS011;61084;55.816;37.036;2024-02-21T05:51:44;16.92;;;6.82;;
72797;SDS011;61084;55.816;37.036;2024-02-21T05:54:10;20.38;;;8.00;;
72797;SDS011;61084;55.816;37.036;2024-02-21T05:56:36;14.48;;;6.40;;
72797;SDS011;61084;55.816;37.036;2024-02-21T05:59:03;12.63;;;5.97;;
72797;SDS011;61084;55.816;37.036;2024-02-21T06:01:28;12.95;;;6.30;;
72797;SDS011;61084;55.816;37.036;2024-02-21T06:03:54;9.32;;;3.88;;
72797;SDS011;61084;55.816;37.036;2024-02-21T06:06:20;17.75;;;6.60;;
72797;SDS011;61084;55.816;37.036;2024-02-21T06:08:47;11.77;;;6.03;;
72797;SDS011;61084;55.816;37.036;2024-02-21T06:11:13;13.27;;;5.75;;
72797;SDS011;61084;55.816;37.036;2024-02-21T06:13:40;11.18;;;5.30;;
72797;SDS011;61084;55.816;37.036;2024-02-21T06:16:06;16.05;;;6.50;;
72797;SDS011;61084;55.816;37.036;2024-02-21T06:18:35;15.10;;;5.90;;
72797;SDS011;61084;55.816;37.036;2024-02-21T06:21:01;14.48;;;6.75;;
72797;SDS011;61084;55.816;37.036;2024-02-21T06:23:27;14.52;;;6.93;;
72797;SDS011;61084;55.816;37.036;2024-02-21T06:25:53;18.60;;;7.30;;
72797;SDS011;61084;55.816;37.036;2024-02-21T06:28:19;15.98;;;6.65;;
72797;SDS011;61084;55.816;37.036;2024-02-21T06:30:46;15.73;;;6.40;;
72797;SDS011;61084;55.816;37.036;2024-02-21T06:33:11;16.65;;;7.13;;
72797;SDS011;61084;55.816;37.036;2024-02-21T06:35:37;17.83;;;7.50;;
72797;SDS011;61084;55.816;37.036;2024-02-21T06:38:06;13.93;;;6.65;;
72797;SDS011;61084;55.816;37.036;2024-02-21T06:40:32;17.25;;;6.93;;
72797;SDS011;61084;55.816;37.036;2024-02-21T06:43:04;13.77;;;6.30;;
72797;SDS011;61084;55.816;37.036;2024-02-21T06:45:30;15.07;;;7.20;;
72797;SDS011;61084;55.816;37.036;2024-02-21T06:47:57;17.15;;;7.35;;
72797;SDS011;61084;55.816;37.036;2024-02-21T06:50:23;15.35;;;6.78;;
72797;SDS011;61084;55.816;37.036;2024-02-21T06:52:49;15.80;;;6.72;;
72797;SDS011;61084;55.816;37.036;2024-02-21T06:55:15;14.23;;;6.30;;
72797;SDS011;61084;55.816;37.036;2024-02-21T06:57:41;22.10;;;7.78;;
72797;SDS011;61084;55.816;37.036;2024-02-21T07:00:08;17.70;;;7.10;;
72797;SDS011;61084;55.816;37.036;2024-02-21T07:02:34;14.70;;;6.13;;
72797;SDS011;61084;55.816;37.036;2024-02-21T07:05:00;14.55;;;6.63;;
72797;SDS011;61084;55.816;37.036;2024-02-21T07:07:26;14.68;;;6.28;;
72797;SDS011;61084;55.816;37.036;2024-02-21T07:09:51;12.68;;;6.32;;
72797;SDS011;61084;55.816;37.036;2024-02-21T07:12:19;11.85;;;6.00;;
72797;SDS011;61084;55.816;37.036;2024-02-21T07:14:45;12.90;;;6.30;;
72797;SDS011;61084;55.816;37.036;2024-02-21T07:17:10;12.30;;;5.72;;
72797;SDS011;61084;55.816;37.036;2024-02-21T07:19:36;9.35;;;5.20;;
72797;SDS011;61084;55.816;37.036;2024-02-21T07:22:02;11.55;;;4.85;;
72797;SDS011;61084;55.816;37.036;2024-02-21T07:24:28;12.05;;;6.10;;
72797;SDS011;61084;55.816;37.036;2024-02-21T07:26:54;9.95;;;4.90;;
72797;SDS011;61084;55.816;37.036;2024-02-21T07:29:21;12.52;;;5.68;;
72797;SDS011;61084;55.816;37.036;2024-02-21T07:31:48;14.95;;;5.88;;
72797;SDS011;61084;55.816;37.036;2024-02-21T07:34:14;12.55;;;5.65;;
72797;SDS011;61084;55.816;37.036;2024-02-21T07:36:40;8.32;;;4.63;;
72797;SDS011;61084;55.816;37.036;2024-02-21T07:39:08;13.15;;;5.55;;
72797;SDS011;61084;55.816;37.036;2024-02-21T07:41:34;9.93;;;5.60;;
72797;SDS011;61084;55.816;37.036;2024-02-21T07:44:00;13.98;;;5.95;;
72797;SDS011;61084;55.816;37.036;2024-02-21T07:46:26;11.45;;;5.40;;
72797;SDS011;61084;55.816;37.036;2024-02-21T07:48:52;12.68;;;5.90;;
72797;SDS011;61084;55.816;37.036;2024-02-21T07:51:17;12.93;;;5.70;;
72797;SDS011;61084;55.816;37.036;2024-02-21T07:53:44;13.82;;;5.85;;
72797;SDS011;61084;55.816;37.036;2024-02-21T07:56:11;10.88;;;5.28;;
72797;SDS011;61084;55.816;37.036;2024-02-21T07:58:41;8.85;;;5.22;;
72797;SDS011;61084;55.816;37.036;2024-02-21T08:01:08;10.18;;;5.68;;
72797;SDS011;61084;55.816;37.036;2024-02-21T08:03:34;13.55;;;5.72;;
72797;SDS011;61084;55.816;37.036;2024-02-21T08:06:00;12.52;;;5.97;;
72797;SDS011;61084;55.816;37.036;2024-02-21T08:08:27;10.02;;;5.15;;
72797;SDS011;61084;55.816;37.036;2024-02-21T08:10:53;10.98;;;5.80;;
72797;SDS011;61084;55.816;37.036;2024-02-21T08:13:19;9.70;;;5.00;;
72797;SDS011;61084;55.816;37.036;2024-02-21T08:15:45;14.63;;;6.00;;
72797;SDS011;61084;55.816;37.036;2024-02-21T08:18:10;14.48;;;6.22;;
72797;SDS011;61084;55.816;37.036;2024-02-21T08:20:36;14.48;;;5.88;;
72797;SDS011;61084;55.816;37.036;2024-02-21T08:23:02;17.08;;;6.63;;
72797;SDS011;61084;55.816;37.036;2024-02-21T08:25:28;11.35;;;5.72;;
72797;SDS011;61084;55.816;37.036;2024-02-21T08:27:58;15.57;;;6.00;;
72797;SDS011;61084;55.816;37.036;2024-02-21T08:30:25;11.13;;;5.13;;
72797;SDS011;61084;55.816;37.036;2024-02-21T08:32:51;15.48;;;6.32;;
72797;SDS011;61084;55.816;37.036;2024-02-21T08:35:20;13.05;;;5.35;;
72797;SDS011;61084;55.816;37.036;2024-02-21T08:37:49;11.82;;;5.47;;
72797;SDS011;61084;55.816;37.036;2024-02-21T08:40:15;11.80;;;5.93;;
72797;SDS011;61084;55.816;37.036;2024-02-21T08:42:47;11.82;;;5.50;;
72797;SDS011;61084;55.816;37.036;2024-02-21T08:45:13;14.80;;;6.82;;
72797;SDS011;61084;55.816;37.036;2024-02-21T08:47:39;13.07;;;6.10;;
72797;SDS011;61084;55.816;37.036;2024-02-21T08:50:06;13.15;;;5.47;;
72797;SDS011;61084;55.816;37.036;2024-02-21T08:52:32;11.38;;;5.82;;
72797;SDS011;61084;55.816;37.036;2024-02-21T08:54:58;12.02;;;5.65;;
72797;SDS011;61084;55.816;37.036;2024-02-21T08:57:24;12.90;;;6.30;;
72797;SDS011;61084;55.816;37.036;2024-02-21T08:59:50;11.43;;;5.68;;
72797;SDS011;61084;55.816;37.036;2024-02-21T09:02:16;13.82;;;5.80;;
72797;SDS011;61084;55.816;37.036;2024-02-21T09:04:42;11.63;;;5.32;;
72797;SDS011;61084;55.816;37.036;2024-02-21T09:07:12;17.00;;;6.82;;
72797;SDS011;61084;55.816;37.036;2024-02-21T09:09:38;14.10;;;5.78;;
72797;SDS011;61084;55.816;37.036;2024-02-21T09:12:06;13.30;;;5.53;;
72797;SDS011;61084;55.816;37.036;2024-02-21T09:14:33;10.38;;;4.85;;
72797;SDS011;61084;55.816;37.036;2024-02-21T09:16:59;11.82;;;5.45;;
72797;SDS011;61084;55.816;37.036;2024-02-21T09:19:25;12.55;;;6.50;;
72797;SDS011;61084;55.816;37.036;2024-02-21T09:21:51;12.18;;;5.78;;
72797;SDS011;61084;55.816;37.036;2024-02-21T09:24:17;11.45;;;5.78;;
72797;SDS011;61084;55.816;37.036;2024-02-21T09:26:43;10.60;;;5.65;;
72797;SDS011;61084;55.816;37.036;2024-02-21T09:29:09;11.85;;;5.60;;
72797;SDS011;61084;55.816;37.036;2024-02-21T09:31:35;10.95;;;5.28;;
72797;SDS011;61084;55.816;37.036;2024-02-21T09:34:01;11.82;;;5.90;;
72797;SDS011;61084;55.816;37.036;2024-02-21T09:36:27;13.50;;;5.40;;
72797;SDS011;61084;55.816;37.036;2024-02-21T09:38:54;11.48;;;5.28;;
72797;SDS011;61084;55.816;37.036;2024-02-21T09:41:26;10.38;;;5.07;;
72797;SDS011;61084;55.816;37.036;2024-02-21T09:43:53;11.18;;;5.70;;
72797;SDS011;61084;55.816;37.036;2024-02-21T09:46:21;14.35;;;5.53;;
72797;SDS011;61084;55.816;37.036;2024-02-21T09:51:27;11.95;;;5.80;;
72797;SDS011;61084;55.816;37.036;2024-02-21T09:53:54;13.95;;;6.50;;
72797;SDS011;61084;55.816;37.036;2024-02-21T09:56:21;12.35;;;6.20;;
72797;SDS011;61084;55.816;37.036;2024-02-21T09:58:47;12.02;;;5.93;;
72797;SDS011;61084;55.816;37.036;2024-02-21T10:01:13;14.55;;;6.50;;
72797;SDS011;61084;55.816;37.036;2024-02-21T10:03:39;12.75;;;6.28;;
72797;SDS011;61084;55.816;37.036;2024-02-21T10:06:05;12.73;;;5.68;;
72797;SDS011;61084;55.816;37.036;2024-02-21T10:08:31;17.30;;;7.45;;
72797;SDS011;61084;55.816;37.036;2024-02-21T10:10:57;13.95;;;6.47;;
72797;SDS011;61084;55.816;37.036;2024-02-21T10:13:26;12.07;;;5.85;;
72797;SDS011;61084;55.816;37.036;2024-02-21T10:16:06;12.60;;;5.45;;
72797;SDS011;61084;55.816;37.036;2024-02-21T10:18:33;10.90;;;5.55;;
72797;SDS011;61084;55.816;37.036;2024-02-21T10:21:06;12.70;;;5.75;;
72797;SDS011;61084;55.816;37.036;2024-02-21T10:23:48;10.98;;;6.30;;
72797;SDS011;61084;55.816;37.036;2024-02-21T10:26:16;12.05;;;5.70;;
72797;SDS011;61084;55.816;37.036;2024-02-21T10:28:43;14.55;;;6.43;;
72797;SDS011;61084;55.816;37.036;2024-02-21T10:31:11;15.65;;;5.88;;
72797;SDS011;61084;55.816;37.036;2024-02-21T10:33:53;13.57;;;6.22;;
72797;SDS011;61084;55.816;37.036;2024-02-21T10:36:19;12.55;;;5.80;;
72797;SDS011;61084;55.816;37.036;2024-02-21T10:38:45;13.23;;;5.50;;
72797;SDS011;61084;55.816;37.036;2024-02-21T10:41:13;15.13;;;5.32;;
72797;SDS011;61084;55.816;37.036;2024-02-21T10:43:41;11.90;;;5.50;;
72797;SDS011;61084;55.816;37.036;2024-02-21T10:46:12;9.73;;;4.38;;
72797;SDS011;61084;55.816;37.036;2024-02-21T10:48:42;11.27;;;5.60;;
72797;SDS011;61084;55.816;37.036;2024-02-21T10:51:19;12.13;;;6.20;;
72797;SDS011;61084;55.816;37.036;2024-02-21T10:56:34;8.98;;;4.88;;
72797;SDS011;61084;55.816;37.036;2024-02-21T10:59:03;9.23;;;4.55;;
72797;SDS011;61084;55.816;37.036;2024-02-21T11:01:30;8.77;;;4.55;;
72797;SDS011;61084;55.816;37.036;2024-02-21T11:03:58;8.88;;;4.93;;
72797;SDS011;61084;55.816;37.036;2024-02-21T11:06:27;8.23;;;4.50;;
72797;SDS011;61084;55.816;37.036;2024-02-21T11:09:03;8.73;;;4.07;;
72797;SDS011;61084;55.816;37.036;2024-02-21T11:11:33;9.02;;;4.55;;
72797;SDS011;61084;55.816;37.036;2024-02-21T11:14:07;11.88;;;5.00;;
72797;SDS011;61084;55.816;37.036;2024-02-21T11:16:40;11.90;;;5.25;;
72797;SDS011;61084;55.816;37.036;2024-02-21T11:19:08;10.43;;;5.25;;
72797;SDS011;61084;55.816;37.036;2024-02-21T11:21:55;11.25;;;5.30;;
72797;SDS011;61084;55.816;37.036;2024-02-21T11:24:40;9.90;;;5.28;;
72797;SDS011;61084;55.816;37.036;2024-02-21T11:27:21;12.48;;;4.95;;
72797;SDS011;61084;55.816;37.036;2024-02-21T11:29:57;14.10;;;6.22;;
72797;SDS011;61084;55.816;37.036;2024-02-21T11:32:24;14.23;;;5.30;;
72797;SDS011;61084;55.816;37.036;2024-02-21T11:37:35;13.32;;;5.50;;
72797;SDS011;61084;55.816;37.036;2024-02-21T11:40:05;11.43;;;5.28;;
72797;SDS011;61084;55.816;37.036;2024-02-21T11:42:35;10.57;;;5.28;;
72797;SDS011;61084;55.816;37.036;2024-02-21T11:45:01;9.68;;;5.00;;
72797;SDS011;61084;55.816;37.036;2024-02-21T11:47:31;12.35;;;5.57;;
72797;SDS011;61084;55.816;37.036;2024-02-21T11:49:56;17.10;;;5.75;;
72797;SDS011;61084;55.816;37.036;2024-02-21T11:52:23;10.27;;;4.75;;
72797;SDS011;61084;55.816;37.036;2024-02-21T11:54:51;11.20;;;4.95;;
72797;SDS011;61084;55.816;37.036;2024-02-21T11:57:23;8.68;;;5.03;;
72797;SDS011;61084;55.816;37.036;2024-02-21T11:59:50;15.65;;;5.32;;
72797;SDS011;61084;55.816;37.036;2024-02-21T12:02:17;13.75;;;5.88;;
72797;SDS011;61084;55.816;37.036;2024-02-21T12:04:46;13.38;;;5.80;;
72797;SDS011;61084;55.816;37.036;2024-02-21T12:07:12;17.00;;;6.22;;
72797;SDS011;61084;55.816;37.036;2024-02-21T12:09:41;13.25;;;6.10;;
72797;SDS011;61084;55.816;37.036;2024-02-21T12:14:33;11.68;;;4.68;;
72797;SDS011;61084;55.816;37.036;2024-02-21T12:17:01;10.50;;;4.82;;
72797;SDS011;61084;55.816;37.036;2024-02-21T12:19:30;12.68;;;5.80;;
72797;SDS011;61084;55.816;37.036;2024-02-21T12:21:58;11.43;;;5.68;;
72797;SDS011;61084;55.816;37.036;2024-02-21T12:24:25;14.82;;;5.63;;
72797;SDS011;61084;55.816;37.036;2024-02-21T12:29:19;12.32;;;5.88;;
72797;SDS011;61084;55.816;37.036;2024-02-21T12:31:45;12.93;;;6.03;;
72797;SDS011;61084;55.816;37.036;2024-02-21T12:34:11;11.38;;;5.60;;
72797;SDS011;61084;55.816;37.036;2024-02-21T12:36:41;14.20;;;5.97;;
72797;SDS011;61084;55.816;37.036;2024-02-21T12:39:08;14.48;;;5.55;;
72797;SDS011;61084;55.816;37.036;2024-02-21T12:41:35;12.98;;;5.50;;
72797;SDS011;61084;55.816;37.036;2024-02-21T12:44:04;14.40;;;5.53;;
72797;SDS011;61084;55.816;37.036;2024-02-21T12:46:35;14.35;;;5.80;;
72797;SDS011;61084;55.816;37.036;2024-02-21T12:49:02;13.50;;;6.00;;
72797;SDS011;61084;55.816;37.036;2024-02-21T12:51:29;12.07;;;5.68;;
72797;SDS011;61084;55.816;37.036;2024-02-21T12:53:55;14.23;;;5.78;;
72797;SDS011;61084;55.816;37.036;2024-02-21T12:56:22;10.93;;;5.55;;
72797;SDS011;61084;55.816;37.036;2024-02-21T12:58:48;12.20;;;5.72;;
72797;SDS011;61084;55.816;37.036;2024-02-21T13:01:14;15.13;;;5.90;;
72797;SDS011;61084;55.816;37.036;2024-02-21T13:03:39;13.07;;;5.75;;
72797;SDS011;61084;55.816;37.036;2024-02-21T13:06:05;19.38;;;5.72;;
72797;SDS011;61084;55.816;37.036;2024-02-21T13:08:38;13.95;;;7.28;;
72797;SDS011;61084;55.816;37.036;2024-02-21T13:11:06;24.40;;;11.35;;
72797;SDS011;61084;55.816;37.036;2024-02-21T13:13:31;14.70;;;6.75;;
72797;SDS011;61084;55.816;37.036;2024-02-21T13:15:58;18.65;;;8.27;;
72797;SDS011;61084;55.816;37.036;2024-02-21T13:18:24;29.73;;;15.88;;
72797;SDS011;61084;55.816;37.036;2024-02-21T13:20:50;22.35;;;12.05;;
72797;SDS011;61084;55.816;37.036;2024-02-21T13:23:16;24.52;;;10.52;;
72797;SDS011;61084;55.816;37.036;2024-02-21T13:25:42;25.15;;;10.98;;
72797;SDS011;61084;55.816;37.036;2024-02-21T13:28:09;26.58;;;14.77;;
72797;SDS011;61084;55.816;37.036;2024-02-21T13:30:35;26.35;;;15.60;;
72797;SDS011;61084;55.816;37.036;2024-02-21T13:33:01;26.15;;;13.48;;
72797;SDS011;61084;55.816;37.036;2024-02-21T13:35:28;15.68;;;6.93;;
72797;SDS011;61084;55.816;37.036;2024-02-21T13:37:54;18.30;;;8.68;;
72797;SDS011;61084;55.816;37.036;2024-02-21T13:40:20;130.02;;;35.00;;
72797;SDS011;61084;55.816;37.036;2024-02-21T13:42:46;45.10;;;21.40;;
72797;SDS011;61084;55.816;37.036;2024-02-21T13:45:13;20.02;;;11.63;;
72797;SDS011;61084;55.816;37.036;2024-02-21T13:47:40;29.42;;;16.02;;
72797;SDS011;61084;55.816;37.036;2024-02-21T13:50:06;21.20;;;11.90;;
72797;SDS011;61084;55.816;37.036;2024-02-21T13:52:36;17.50;;;8.20;;
72797;SDS011;61084;55.816;37.036;2024-02-21T13:55:03;15.90;;;7.32;;
72797;SDS011;61084;55.816;37.036;2024-02-21T13:57:29;16.52;;;7.30;;
72797;SDS011;61084;55.816;37.036;2024-02-21T13:59:55;16.50;;;7.38;;
72797;SDS011;61084;55.816;37.036;2024-02-21T14:02:21;17.50;;;8.77;;
72797;SDS011;61084;55.816;37.036;2024-02-21T14:04:47;16.75;;;8.32;;
72797;SDS011;61084;55.816;37.036;2024-02-21T14:07:13;26.45;;;12.55;;
72797;SDS011;61084;55.816;37.036;2024-02-21T14:09:38;49.28;;;18.08;;
72797;SDS011;61084;55.816;37.036;2024-02-21T14:12:04;21.38;;;9.70;;
72797;SDS011;61084;55.816;37.036;2024-02-21T14:14:34;33.90;;;13.93;;
72797;SDS011;61084;55.816;37.036;2024-02-21T14:17:02;62.72;;;19.85;;
72797;SDS011;61084;55.816;37.036;2024-02-21T14:19:29;42.63;;;13.55;;
72797;SDS011;61084;55.816;37.036;2024-02-21T14:21:55;80.03;;;26.55;;
72797;SDS011;61084;55.816;37.036;2024-02-21T14:24:22;24.08;;;9.27;;
72797;SDS011;61084;55.816;37.036;2024-02-21T14:26:49;27.52;;;11.38;;
72797;SDS011;61084;55.816;37.036;2024-02-21T14:29:14;21.83;;;10.18;;
72797;SDS011;61084;55.816;37.036;2024-02-21T14:31:41;32.25;;;13.73;;
72797;SDS011;61084;55.816;37.036;2024-02-21T14:34:08;29.63;;;12.75;;
72797;SDS011;61084;55.816;37.036;2024-02-21T14:36:34;27.27;;;11.25;;
72797;SDS011;61084;55.816;37.036;2024-02-21T14:39:00;27.83;;;12.05;;